Navios Taurus — 9HA3414 — position and weather

sailwx.info

Track history (hours):
 
Tides and Currents Weather Stations Pressure Air Temp Water Temp Dewpoint Dewpoint Depression Visibility Wind Speed Wind Dir Waves Ship Positions

Navios Taurus

Last reported at 2017-Aug-24 01:38 UTC. Time now 2017-Sep-21 18:02 UTC.
Position N 23°36' W 017°34'.
Warning: this ship's position is 28 days out of date.

Length 225 m; draft 11.9 m.

Type: Ship. MMSI: 229569000.

Date/timePositionNaut miles runAvg speedWind from/ knotsBaromVisibWave heightAir tempDewpointWater temp
2017-Aug-24 01:38N 23°36' W 017°34'212.0
2017-Aug-24 01:30N 23°37' W 017°33'18812.2
2017-Aug-23 10:08N 26°01' W 015°21'111.8
2017-Aug-23 10:01N 26°02' W 015°20'611.8
2017-Aug-23 09:30N 26°07' W 015°16'611.8
2017-Aug-23 09:00N 26°11' W 015°11'611.7
2017-Aug-23 08:28N 26°16' W 015°07'511.8
2017-Aug-23 08:01N 26°20' W 015°03'611.7
2017-Aug-23 07:31N 26°25' W 014°59'611.5
2017-Aug-23 07:01N 26°30' W 014°56'611.5
2017-Aug-23 06:29N 26°35' W 014°51'612.0
2017-Aug-23 06:00N 26°39' W 014°47'713.4
2017-Aug-23 05:30N 26°44' W 014°42'713.6
2017-Aug-23 05:01N 26°49' W 014°37'612.9
2017-Aug-23 04:31N 26°54' W 014°32'611.7
2017-Aug-23 04:00N 26°58' W 014°28'612.3
2017-Aug-23 03:30N 27°03' W 014°24'612.5
2017-Aug-23 03:00N 27°08' W 014°19'612.4
2017-Aug-23 02:31N 27°12' W 014°15'612.5
2017-Aug-23 02:00N 27°17' W 014°10'612.7
2017-Aug-23 01:30N 27°22' W 014°06'612.7
2017-Aug-23 01:01N 27°27' W 014°01'612.7
2017-Aug-23 00:31N 27°32' W 013°56'612.8
2017-Aug-23 00:01N 27°37' W 013°52'612.9
2017-Aug-22 23:31N 27°42' W 013°47'612.8
2017-Aug-22 23:01N 27°47' W 013°43'612.7
2017-Aug-22 22:31N 27°52' W 013°38'612.6
2017-Aug-22 22:01N 27°56' W 013°33'612.6
2017-Aug-22 21:31N 28°01' W 013°29'612.5
2017-Aug-22 21:01N 28°07' W 013°25'612.6
2017-Aug-22 20:31N 28°12' W 013°21'612.4
2017-Aug-22 20:01N 28°17' W 013°17'612.5
2017-Aug-22 19:31N 28°22' W 013°13'612.8
2017-Aug-22 19:01N 28°28' W 013°09'713.0
2017-Aug-22 18:31N 28°33' W 013°05'713.0
2017-Aug-22 18:00N 28°39' W 013°01'612.5
2017-Aug-22 17:31N 28°44' W 012°57'612.1
2017-Aug-22 17:01N 28°49' W 012°54'612.0
2017-Aug-22 16:31N 28°54' W 012°50'612.0
2017-Aug-22 16:01N 28°59' W 012°46'612.4
2017-Aug-22 15:31N 29°04' W 012°42'612.4
2017-Aug-22 15:01N 29°09' W 012°38'612.1
2017-Aug-22 14:31N 29°14' W 012°35'612.1
2017-Aug-22 14:00N 29°19' W 012°31'14511.9
2017-Aug-22 01:51N 31°38' W 011°43'58912.1
2017-Aug-20 01:06N 41°23' W 010°17'111.7
2017-Aug-20 01:01N 41°24' W 010°16'611.7
2017-Aug-20 00:30N 41°30' W 010°16'611.9
2017-Aug-20 00:00N 41°36' W 010°15'1411.9
2017-Aug-19 22:48N 41°50' W 010°13'1912.1
2017-Aug-19 21:15N 42°09' W 010°11'311.8
2017-Aug-19 21:00N 42°12' W 010°11'612.5
2017-Aug-19 20:30N 42°18' W 010°10'1112.3
2017-Aug-19 19:34N 42°30' W 010°08'112.3
2017-Aug-19 19:28N 42°31' W 010°08'40211.1
2017-Aug-18 07:23N 45°60' W 002°09'511.5
2017-Aug-18 06:59N 46°02' W 002°03'511.3
2017-Aug-18 06:30N 46°04' W 001°56'611.3
2017-Aug-18 06:00N 46°06' W 001°49'510.9
2017-Aug-18 05:30N 46°08' W 001°41'612.0
2017-Aug-18 05:00N 46°07' W 001°33'612.2
2017-Aug-18 04:30N 46°06' W 001°24'510.1
2017-Aug-18 04:00N 46°06' W 001°17'4 7.1
2017-Aug-18 03:30N 46°09' W 001°15'1 1.4
2017-Aug-18 02:58N 46°10' W 001°14'0 0.0
2017-Aug-18 02:28N 46°10' W 001°14'0 0.0
2017-Aug-18 01:58N 46°10' W 001°14'0 0.0
2017-Aug-18 01:28N 46°10' W 001°14'0 0.0
2017-Aug-18 00:58N 46°10' W 001°14'0 0.0
2017-Aug-18 00:28N 46°10' W 001°14'0 0.0
2017-Aug-17 23:58N 46°10' W 001°14'0 0.0
2017-Aug-17 23:28N 46°10' W 001°14'0 0.0
2017-Aug-17 22:58N 46°10' W 001°14'0 0.0
2017-Aug-17 22:28N 46°10' W 001°14'0 0.0
2017-Aug-17 21:58N 46°10' W 001°14'0 0.0
2017-Aug-17 21:28N 46°10' W 001°14'0 0.0
2017-Aug-17 20:58N 46°10' W 001°14'0 0.0
2017-Aug-17 20:25N 46°10' W 001°14'0 0.0
2017-Aug-17 19:58N 46°10' W 001°14'0 0.0
2017-Aug-17 19:28N 46°10' W 001°14'0 0.0
2017-Aug-17 18:58N 46°10' W 001°14'0 0.0
2017-Aug-17 18:28N 46°10' W 001°14'0 0.0
2017-Aug-17 17:58N 46°10' W 001°14'0 0.0
2017-Aug-17 17:28N 46°10' W 001°14'0 0.0
2017-Aug-17 16:58N 46°10' W 001°14'0 0.0
2017-Aug-17 16:28N 46°10' W 001°14'0 0.0
2017-Aug-17 15:58N 46°10' W 001°14'0 0.0
2017-Aug-17 15:28N 46°10' W 001°14'0 0.0
2017-Aug-17 14:55N 46°10' W 001°14'0 0.0
2017-Aug-17 14:28N 46°10' W 001°14'0 0.0
2017-Aug-17 13:58N 46°10' W 001°14'0 0.0
2017-Aug-17 13:28N 46°10' W 001°14'0 0.0
2017-Aug-17 12:58N 46°10' W 001°14'0 0.0
2017-Aug-17 12:28N 46°10' W 001°14'0 0.0
2017-Aug-17 11:58N 46°10' W 001°14'0 0.0
2017-Aug-17 11:28N 46°10' W 001°14'0 0.0
2017-Aug-17 10:58N 46°10' W 001°14'0 0.0
2017-Aug-17 10:28N 46°10' W 001°14'0 0.0
2017-Aug-17 09:58N 46°10' W 001°14'0 0.0
2017-Aug-17 09:28N 46°10' W 001°14'0 0.0
2017-Aug-17 08:58N 46°10' W 001°14'0 0.0
2017-Aug-17 08:28N 46°10' W 001°14'0 0.0
2017-Aug-17 07:58N 46°10' W 001°14'0 0.0
2017-Aug-17 07:28N 46°10' W 001°14'0 0.0
2017-Aug-17 06:52N 46°10' W 001°14'0 0.0
2017-Aug-17 06:28N 46°10' W 001°14'0 0.0
2017-Aug-17 05:58N 46°10' W 001°14'0 0.0
2017-Aug-17 05:28N 46°10' W 001°14'0 0.0
2017-Aug-17 04:58N 46°10' W 001°14'0 0.0
2017-Aug-17 04:28N 46°10' W 001°14'0 0.0
2017-Aug-17 03:58N 46°10' W 001°14'0 0.0
2017-Aug-17 03:28N 46°10' W 001°14'0 0.0
2017-Aug-17 02:58N 46°10' W 001°14'0 0.0
2017-Aug-17 02:28N 46°10' W 001°14'0 0.0
2017-Aug-17 01:58N 46°10' W 001°14'0 0.0
2017-Aug-17 01:28N 46°10' W 001°14'0 0.0
2017-Aug-17 00:58N 46°10' W 001°14'0 0.0
2017-Aug-17 00:28N 46°10' W 001°14'0 0.0
2017-Aug-16 23:58N 46°10' W 001°14'0 0.0
2017-Aug-16 23:28N 46°10' W 001°14'0 0.0
2017-Aug-16 22:58N 46°10' W 001°14'0 0.0
2017-Aug-16 22:28N 46°10' W 001°14'0 0.0
2017-Aug-16 21:58N 46°10' W 001°14'0 0.0
2017-Aug-16 21:28N 46°10' W 001°14'0 0.0
2017-Aug-16 20:58N 46°10' W 001°14'0 0.0
2017-Aug-16 20:28N 46°10' W 001°14'0 0.0
2017-Aug-16 19:58N 46°10' W 001°14'0 0.0
2017-Aug-16 19:28N 46°10' W 001°14'0 0.0
2017-Aug-16 18:58N 46°10' W 001°14'0 0.0
2017-Aug-16 18:28N 46°10' W 001°14'0 0.0
2017-Aug-16 17:58N 46°10' W 001°14'0 0.0
2017-Aug-16 17:28N 46°10' W 001°14'0 0.0
2017-Aug-16 16:58N 46°10' W 001°14'0 0.0
2017-Aug-16 16:28N 46°10' W 001°14'0 0.0
2017-Aug-16 15:58N 46°10' W 001°14'0 0.0
2017-Aug-16 15:28N 46°10' W 001°14'0 0.0
2017-Aug-16 14:58N 46°10' W 001°14'0 0.0
2017-Aug-16 14:28N 46°10' W 001°14'0 0.0
2017-Aug-16 13:58N 46°10' W 001°14'0 0.0
2017-Aug-16 13:28N 46°10' W 001°14'0 0.0
2017-Aug-16 12:58N 46°10' W 001°14'0 0.0
2017-Aug-16 12:28N 46°10' W 001°14'0 0.0
2017-Aug-16 11:58N 46°10' W 001°14'0 0.0
2017-Aug-16 11:28N 46°10' W 001°14'0 0.0
2017-Aug-16 10:55N 46°10' W 001°14'0 0.0
2017-Aug-16 10:28N 46°10' W 001°14'0 0.0
2017-Aug-16 09:58N 46°10' W 001°14'0 0.0
2017-Aug-16 09:28N 46°10' W 001°14'0 0.0
2017-Aug-16 08:58N 46°10' W 001°14'0 0.0
2017-Aug-16 08:28N 46°10' W 001°14'0 0.0
2017-Aug-16 07:58N 46°10' W 001°14'0 0.0
2017-Aug-16 07:28N 46°10' W 001°14'0 0.0
2017-Aug-16 06:58N 46°10' W 001°14'0 0.0
2017-Aug-16 06:28N 46°10' W 001°14'0 0.0
2017-Aug-16 05:58N 46°10' W 001°14'0 0.0
2017-Aug-16 05:28N 46°10' W 001°14'0 0.0
2017-Aug-16 04:58N 46°10' W 001°14'0 0.0
2017-Aug-16 04:28N 46°10' W 001°14'0 0.0
2017-Aug-16 03:58N 46°10' W 001°14'0 0.0
2017-Aug-16 03:28N 46°10' W 001°14'0 0.0
2017-Aug-16 02:58N 46°10' W 001°14'0 0.0
2017-Aug-16 02:28N 46°10' W 001°14'0 0.0
2017-Aug-16 01:58N 46°10' W 001°14'0 0.0
2017-Aug-16 01:28N 46°10' W 001°14'0 0.0
2017-Aug-16 00:58N 46°10' W 001°14'0 0.0
2017-Aug-16 00:28N 46°10' W 001°14'0 0.0
2017-Aug-15 23:58N 46°10' W 001°14'0 0.0
2017-Aug-15 23:28N 46°10' W 001°14'0 0.0
2017-Aug-15 22:55N 46°10' W 001°14'0 0.0
2017-Aug-15 22:28N 46°10' W 001°14'0 0.0
2017-Aug-15 21:58N 46°10' W 001°14'0 0.0
2017-Aug-15 21:28N 46°10' W 001°14'0 0.0
2017-Aug-15 20:58N 46°10' W 001°14'0 0.0
2017-Aug-15 20:28N 46°10' W 001°14'0 0.0
2017-Aug-15 19:58N 46°10' W 001°14'0 0.0
2017-Aug-15 19:28N 46°10' W 001°14'0 0.0
2017-Aug-15 18:58N 46°10' W 001°14'0 0.0
2017-Aug-15 18:28N 46°10' W 001°14'0 0.0
2017-Aug-15 17:58N 46°10' W 001°14'0 0.0
2017-Aug-15 17:28N 46°10' W 001°14'0 0.0
2017-Aug-15 16:55N 46°10' W 001°14'0 0.0
2017-Aug-15 16:28N 46°10' W 001°14'0 0.0
2017-Aug-15 15:58N 46°10' W 001°14'0 0.0
2017-Aug-15 15:28N 46°10' W 001°14'0 0.0
2017-Aug-15 14:58N 46°10' W 001°14'0 0.0
2017-Aug-15 14:22N 46°10' W 001°14'0 0.0
2017-Aug-15 13:58N 46°10' W 001°14'0 0.0
2017-Aug-15 13:28N 46°10' W 001°14'0 0.0
2017-Aug-15 12:58N 46°10' W 001°14'0 0.0
2017-Aug-15 12:28N 46°10' W 001°14'0 0.0
2017-Aug-15 11:58N 46°10' W 001°14'0 0.0
2017-Aug-15 11:28N 46°10' W 001°14'0 0.0
2017-Aug-15 10:58N 46°10' W 001°14'0 0.0
2017-Aug-15 10:28N 46°10' W 001°14'0 0.0
2017-Aug-15 09:58N 46°10' W 001°14'0 0.0
2017-Aug-15 09:28N 46°10' W 001°14'0 0.0
2017-Aug-15 08:58N 46°10' W 001°14'0 0.0
2017-Aug-15 08:28N 46°10' W 001°14'0 0.0
2017-Aug-15 07:58N 46°10' W 001°14'0 0.0
2017-Aug-15 07:22N 46°10' W 001°14'0 0.0
2017-Aug-15 06:58N 46°10' W 001°14'0 0.0
2017-Aug-15 06:28N 46°10' W 001°14'0 0.0
2017-Aug-15 05:58N 46°10' W 001°14'0 0.0
2017-Aug-15 05:28N 46°10' W 001°14'0 0.0
2017-Aug-15 04:58N 46°10' W 001°14'0 0.0
2017-Aug-15 04:28N 46°10' W 001°14'0 0.0
2017-Aug-15 03:58N 46°10' W 001°14'0 0.0
2017-Aug-15 03:28N 46°10' W 001°14'0 0.0
2017-Aug-15 02:58N 46°10' W 001°14'0 0.0
2017-Aug-15 02:28N 46°10' W 001°14'0 0.0
2017-Aug-15 01:58N 46°10' W 001°14'0 0.0
2017-Aug-15 01:28N 46°10' W 001°14'0 0.0
2017-Aug-15 00:55N 46°10' W 001°14'0 0.0
2017-Aug-15 00:28N 46°10' W 001°14'0 0.0
2017-Aug-14 23:58N 46°10' W 001°14'  
Track history (hours):
 
Tides and Currents Weather Stations Pressure Air Temp Water Temp Dewpoint Dewpoint Depression Visibility Wind Speed Wind Dir Waves Ship Positions

Navios Taurus

Last reported at 2017-Aug-24 01:38 UTC. Time now 2017-Sep-21 18:02 UTC.
Position N 23°36' W 017°34'.
Warning: this ship's position is 28 days out of date.

Length 225 m; draft 11.9 m.

Type: Ship. MMSI: 229569000.

Date/timePositionNaut miles runAvg speedWind from/ knotsBaromVisibWave heightAir tempDewpointWater temp
2017-Aug-24 01:38N 23°36' W 017°34'212.0
2017-Aug-24 01:30N 23°37' W 017°33'18812.2
2017-Aug-23 10:08N 26°01' W 015°21'111.8
2017-Aug-23 10:01N 26°02' W 015°20'611.8
2017-Aug-23 09:30N 26°07' W 015°16'611.8
2017-Aug-23 09:00N 26°11' W 015°11'611.7
2017-Aug-23 08:28N 26°16' W 015°07'511.8
2017-Aug-23 08:01N 26°20' W 015°03'611.7
2017-Aug-23 07:31N 26°25' W 014°59'611.5
2017-Aug-23 07:01N 26°30' W 014°56'611.5
2017-Aug-23 06:29N 26°35' W 014°51'612.0
2017-Aug-23 06:00N 26°39' W 014°47'713.4
2017-Aug-23 05:30N 26°44' W 014°42'713.6
2017-Aug-23 05:01N 26°49' W 014°37'612.9
2017-Aug-23 04:31N 26°54' W 014°32'611.7
2017-Aug-23 04:00N 26°58' W 014°28'612.3
2017-Aug-23 03:30N 27°03' W 014°24'612.5
2017-Aug-23 03:00N 27°08' W 014°19'612.4
2017-Aug-23 02:31N 27°12' W 014°15'612.5
2017-Aug-23 02:00N 27°17' W 014°10'612.7
2017-Aug-23 01:30N 27°22' W 014°06'612.7
2017-Aug-23 01:01N 27°27' W 014°01'612.7
2017-Aug-23 00:31N 27°32' W 013°56'612.8
2017-Aug-23 00:01N 27°37' W 013°52'612.9
2017-Aug-22 23:31N 27°42' W 013°47'612.8
2017-Aug-22 23:01N 27°47' W 013°43'612.7
2017-Aug-22 22:31N 27°52' W 013°38'612.6
2017-Aug-22 22:01N 27°56' W 013°33'612.6
2017-Aug-22 21:31N 28°01' W 013°29'612.5
2017-Aug-22 21:01N 28°07' W 013°25'612.6
2017-Aug-22 20:31N 28°12' W 013°21'612.4
2017-Aug-22 20:01N 28°17' W 013°17'612.5
2017-Aug-22 19:31N 28°22' W 013°13'612.8
2017-Aug-22 19:01N 28°28' W 013°09'713.0
2017-Aug-22 18:31N 28°33' W 013°05'713.0
2017-Aug-22 18:00N 28°39' W 013°01'612.5
2017-Aug-22 17:31N 28°44' W 012°57'612.1
2017-Aug-22 17:01N 28°49' W 012°54'612.0
2017-Aug-22 16:31N 28°54' W 012°50'612.0
2017-Aug-22 16:01N 28°59' W 012°46'612.4
2017-Aug-22 15:31N 29°04' W 012°42'612.4
2017-Aug-22 15:01N 29°09' W 012°38'612.1
2017-Aug-22 14:31N 29°14' W 012°35'612.1
2017-Aug-22 14:00N 29°19' W 012°31'14511.9
2017-Aug-22 01:51N 31°38' W 011°43'58912.1
2017-Aug-20 01:06N 41°23' W 010°17'111.7
2017-Aug-20 01:01N 41°24' W 010°16'611.7
2017-Aug-20 00:30N 41°30' W 010°16'611.9
2017-Aug-20 00:00N 41°36' W 010°15'1411.9
2017-Aug-19 22:48N 41°50' W 010°13'1912.1
2017-Aug-19 21:15N 42°09' W 010°11'311.8
2017-Aug-19 21:00N 42°12' W 010°11'612.5
2017-Aug-19 20:30N 42°18' W 010°10'1112.3
2017-Aug-19 19:34N 42°30' W 010°08'112.3
2017-Aug-19 19:28N 42°31' W 010°08'40211.1
2017-Aug-18 07:23N 45°60' W 002°09'511.5
2017-Aug-18 06:59N 46°02' W 002°03'511.3
2017-Aug-18 06:30N 46°04' W 001°56'611.3
2017-Aug-18 06:00N 46°06' W 001°49'510.9
2017-Aug-18 05:30N 46°08' W 001°41'612.0
2017-Aug-18 05:00N 46°07' W 001°33'612.2
2017-Aug-18 04:30N 46°06' W 001°24'510.1
2017-Aug-18 04:00N 46°06' W 001°17'4 7.1
2017-Aug-18 03:30N 46°09' W 001°15'1 1.4
2017-Aug-18 02:58N 46°10' W 001°14'0 0.0
2017-Aug-18 02:28N 46°10' W 001°14'0 0.0
2017-Aug-18 01:58N 46°10' W 001°14'0 0.0
2017-Aug-18 01:28N 46°10' W 001°14'0 0.0
2017-Aug-18 00:58N 46°10' W 001°14'0 0.0
2017-Aug-18 00:28N 46°10' W 001°14'0 0.0
2017-Aug-17 23:58N 46°10' W 001°14'0 0.0
2017-Aug-17 23:28N 46°10' W 001°14'0 0.0
2017-Aug-17 22:58N 46°10' W 001°14'0 0.0
2017-Aug-17 22:28N 46°10' W 001°14'0 0.0
2017-Aug-17 21:58N 46°10' W 001°14'0 0.0
2017-Aug-17 21:28N 46°10' W 001°14'0 0.0
2017-Aug-17 20:58N 46°10' W 001°14'0 0.0
2017-Aug-17 20:25N 46°10' W 001°14'0 0.0
2017-Aug-17 19:58N 46°10' W 001°14'0 0.0
2017-Aug-17 19:28N 46°10' W 001°14'0 0.0
2017-Aug-17 18:58N 46°10' W 001°14'0 0.0
2017-Aug-17 18:28N 46°10' W 001°14'0 0.0
2017-Aug-17 17:58N 46°10' W 001°14'0 0.0
2017-Aug-17 17:28N 46°10' W 001°14'0 0.0
2017-Aug-17 16:58N 46°10' W 001°14'0 0.0
2017-Aug-17 16:28N 46°10' W 001°14'0 0.0
2017-Aug-17 15:58N 46°10' W 001°14'0 0.0
2017-Aug-17 15:28N 46°10' W 001°14'0 0.0
2017-Aug-17 14:55N 46°10' W 001°14'0 0.0
2017-Aug-17 14:28N 46°10' W 001°14'0 0.0
2017-Aug-17 13:58N 46°10' W 001°14'0 0.0
2017-Aug-17 13:28N 46°10' W 001°14'0 0.0
2017-Aug-17 12:58N 46°10' W 001°14'0 0.0
2017-Aug-17 12:28N 46°10' W 001°14'0 0.0
2017-Aug-17 11:58N 46°10' W 001°14'0 0.0
2017-Aug-17 11:28N 46°10' W 001°14'0 0.0
2017-Aug-17 10:58N 46°10' W 001°14'0 0.0
2017-Aug-17 10:28N 46°10' W 001°14'0 0.0
2017-Aug-17 09:58N 46°10' W 001°14'0 0.0
2017-Aug-17 09:28N 46°10' W 001°14'0 0.0
2017-Aug-17 08:58N 46°10' W 001°14'0 0.0
2017-Aug-17 08:28N 46°10' W 001°14'0 0.0
2017-Aug-17 07:58N 46°10' W 001°14'0 0.0
2017-Aug-17 07:28N 46°10' W 001°14'0 0.0
2017-Aug-17 06:52N 46°10' W 001°14'0 0.0
2017-Aug-17 06:28N 46°10' W 001°14'0 0.0
2017-Aug-17 05:58N 46°10' W 001°14'0 0.0
2017-Aug-17 05:28N 46°10' W 001°14'0 0.0
2017-Aug-17 04:58N 46°10' W 001°14'0 0.0
2017-Aug-17 04:28N 46°10' W 001°14'0 0.0
2017-Aug-17 03:58N 46°10' W 001°14'0 0.0
2017-Aug-17 03:28N 46°10' W 001°14'0 0.0
2017-Aug-17 02:58N 46°10' W 001°14'0 0.0
2017-Aug-17 02:28N 46°10' W 001°14'0 0.0
2017-Aug-17 01:58N 46°10' W 001°14'0 0.0
2017-Aug-17 01:28N 46°10' W 001°14'0 0.0
2017-Aug-17 00:58N 46°10' W 001°14'0 0.0
2017-Aug-17 00:28N 46°10' W 001°14'0 0.0
2017-Aug-16 23:58N 46°10' W 001°14'0 0.0
2017-Aug-16 23:28N 46°10' W 001°14'0 0.0
2017-Aug-16 22:58N 46°10' W 001°14'0 0.0
2017-Aug-16 22:28N 46°10' W 001°14'0 0.0
2017-Aug-16 21:58N 46°10' W 001°14'0 0.0
2017-Aug-16 21:28N 46°10' W 001°14'0 0.0
2017-Aug-16 20:58N 46°10' W 001°14'0 0.0
2017-Aug-16 20:28N 46°10' W 001°14'0 0.0
2017-Aug-16 19:58N 46°10' W 001°14'0 0.0
2017-Aug-16 19:28N 46°10' W 001°14'0 0.0
2017-Aug-16 18:58N 46°10' W 001°14'0 0.0
2017-Aug-16 18:28N 46°10' W 001°14'0 0.0
2017-Aug-16 17:58N 46°10' W 001°14'0 0.0
2017-Aug-16 17:28N 46°10' W 001°14'0 0.0
2017-Aug-16 16:58N 46°10' W 001°14'0 0.0
2017-Aug-16 16:28N 46°10' W 001°14'0 0.0
2017-Aug-16 15:58N 46°10' W 001°14'0 0.0
2017-Aug-16 15:28N 46°10' W 001°14'0 0.0
2017-Aug-16 14:58N 46°10' W 001°14'0 0.0
2017-Aug-16 14:28N 46°10' W 001°14'0 0.0
2017-Aug-16 13:58N 46°10' W 001°14'0 0.0
2017-Aug-16 13:28N 46°10' W 001°14'0 0.0
2017-Aug-16 12:58N 46°10' W 001°14'0 0.0
2017-Aug-16 12:28N 46°10' W 001°14'0 0.0
2017-Aug-16 11:58N 46°10' W 001°14'0 0.0
2017-Aug-16 11:28N 46°10' W 001°14'0 0.0
2017-Aug-16 10:55N 46°10' W 001°14'0 0.0
2017-Aug-16 10:28N 46°10' W 001°14'0 0.0
2017-Aug-16 09:58N 46°10' W 001°14'0 0.0
2017-Aug-16 09:28N 46°10' W 001°14'0 0.0
2017-Aug-16 08:58N 46°10' W 001°14'0 0.0
2017-Aug-16 08:28N 46°10' W 001°14'0 0.0
2017-Aug-16 07:58N 46°10' W 001°14'0 0.0
2017-Aug-16 07:28N 46°10' W 001°14'0 0.0
2017-Aug-16 06:58N 46°10' W 001°14'0 0.0
2017-Aug-16 06:28N 46°10' W 001°14'0 0.0
2017-Aug-16 05:58N 46°10' W 001°14'0 0.0
2017-Aug-16 05:28N 46°10' W 001°14'0 0.0
2017-Aug-16 04:58N 46°10' W 001°14'0 0.0
2017-Aug-16 04:28N 46°10' W 001°14'0 0.0
2017-Aug-16 03:58N 46°10' W 001°14'0 0.0
2017-Aug-16 03:28N 46°10' W 001°14'0 0.0
2017-Aug-16 02:58N 46°10' W 001°14'0 0.0
2017-Aug-16 02:28N 46°10' W 001°14'0 0.0
2017-Aug-16 01:58N 46°10' W 001°14'0 0.0
2017-Aug-16 01:28N 46°10' W 001°14'0 0.0
2017-Aug-16 00:58N 46°10' W 001°14'0 0.0
2017-Aug-16 00:28N 46°10' W 001°14'0 0.0
2017-Aug-15 23:58N 46°10' W 001°14'0 0.0
2017-Aug-15 23:28N 46°10' W 001°14'0 0.0
2017-Aug-15 22:55N 46°10' W 001°14'0 0.0
2017-Aug-15 22:28N 46°10' W 001°14'0 0.0
2017-Aug-15 21:58N 46°10' W 001°14'0 0.0
2017-Aug-15 21:28N 46°10' W 001°14'0 0.0
2017-Aug-15 20:58N 46°10' W 001°14'0 0.0
2017-Aug-15 20:28N 46°10' W 001°14'0 0.0
2017-Aug-15 19:58N 46°10' W 001°14'0 0.0
2017-Aug-15 19:28N 46°10' W 001°14'0 0.0
2017-Aug-15 18:58N 46°10' W 001°14'0 0.0
2017-Aug-15 18:28N 46°10' W 001°14'0 0.0
2017-Aug-15 17:58N 46°10' W 001°14'0 0.0
2017-Aug-15 17:28N 46°10' W 001°14'0 0.0
2017-Aug-15 16:55N 46°10' W 001°14'0 0.0
2017-Aug-15 16:28N 46°10' W 001°14'0 0.0
2017-Aug-15 15:58N 46°10' W 001°14'0 0.0
2017-Aug-15 15:28N 46°10' W 001°14'0 0.0
2017-Aug-15 14:58N 46°10' W 001°14'0 0.0
2017-Aug-15 14:22N 46°10' W 001°14'0 0.0
2017-Aug-15 13:58N 46°10' W 001°14'0 0.0
2017-Aug-15 13:28N 46°10' W 001°14'0 0.0
2017-Aug-15 12:58N 46°10' W 001°14'0 0.0
2017-Aug-15 12:28N 46°10' W 001°14'0 0.0
2017-Aug-15 11:58N 46°10' W 001°14'0 0.0
2017-Aug-15 11:28N 46°10' W 001°14'0 0.0
2017-Aug-15 10:58N 46°10' W 001°14'0 0.0
2017-Aug-15 10:28N 46°10' W 001°14'0 0.0
2017-Aug-15 09:58N 46°10' W 001°14'0 0.0
2017-Aug-15 09:28N 46°10' W 001°14'0 0.0
2017-Aug-15 08:58N 46°10' W 001°14'0 0.0
2017-Aug-15 08:28N 46°10' W 001°14'0 0.0
2017-Aug-15 07:58N 46°10' W 001°14'0 0.0
2017-Aug-15 07:22N 46°10' W 001°14'0 0.0
2017-Aug-15 06:58N 46°10' W 001°14'0 0.0
2017-Aug-15 06:28N 46°10' W 001°14'0 0.0
2017-Aug-15 05:58N 46°10' W 001°14'0 0.0
2017-Aug-15 05:28N 46°10' W 001°14'0 0.0
2017-Aug-15 04:58N 46°10' W 001°14'0 0.0
2017-Aug-15 04:28N 46°10' W 001°14'0 0.0
2017-Aug-15 03:58N 46°10' W 001°14'0 0.0
2017-Aug-15 03:28N 46°10' W 001°14'0 0.0
2017-Aug-15 02:58N 46°10' W 001°14'0 0.0
2017-Aug-15 02:28N 46°10' W 001°14'0 0.0
2017-Aug-15 01:58N 46°10' W 001°14'0 0.0
2017-Aug-15 01:28N 46°10' W 001°14'0 0.0
2017-Aug-15 00:55N 46°10' W 001°14'0 0.0
2017-Aug-15 00:28N 46°10' W 001°14'0 0.0
2017-Aug-14 23:58N 46°10' W 001°14'  

Dump ship's entire track history